Time;durP1;ratioP1;P1;durP2;ratioP2;P2;SDS_P1;SDS_P2;PMS_P1;PMS_P2;Temp;Humidity;BMP_temperature;BMP_pressure;BME280_temperature;BME280_humidity;BME280_pressure;Samples;Min_cycle;Max_cycle;Signal;HPM_P1;HPM_P2
2020/12/12 00:00:26;;;;;;;26.58;3.28;;;9.10;99.90;;;;;;5071124;28;20049;-92
2020/12/12 00:03:01;;;;;;;21.77;3.70;;;9.10;99.90;;;;;;5065173;28;20545;-92
2020/12/12 00:05:54;;;;;;;24.98;3.50;;;9.20;99.90;;;;;;5061198;28;20463;-92
2020/12/12 00:08:34;;;;;;;21.13;3.50;;;9.20;99.90;;;;;;5059961;28;20045;-92
2020/12/12 00:11:19;;;;;;;23.48;4.13;;;9.20;99.90;;;;;;5070036;28;20116;-92
2020/12/12 00:13:59;;;;;;;24.77;4.28;;;9.20;99.90;;;;;;5065510;28;20063;-92
2020/12/12 00:16:43;;;;;;;17.85;2.90;;;9.20;99.90;;;;;;5068662;28;20045;-92
2020/12/12 00:19:27;;;;;;;21.98;3.95;;;9.20;99.90;;;;;;5056034;28;20134;-92
2020/12/12 00:22:10;;;;;;;21.05;3.63;;;9.10;99.90;;;;;;5055873;28;20490;-92
2020/12/12 00:24:56;;;;;;;17.02;3.13;;;9.10;99.90;;;;;;5071436;28;20051;-92
2020/12/12 00:27:41;;;;;;;14.40;2.47;;;9.10;99.90;;;;;;5068877;28;20044;-91
2020/12/12 00:30:19;;;;;;;11.02;2.22;;;9.10;99.90;;;;;;5057590;28;20052;-92
2020/12/12 00:33:02;;;;;;;18.95;2.45;;;9.00;99.90;;;;;;5069281;28;20090;-92
2020/12/12 00:35:40;;;;;;;;;;;8.90;99.90;;;;;;5070257;28;20055;-92
2020/12/12 00:38:24;;;;;;;9.02;1.88;;;8.80;99.90;;;;;;5082518;28;19974;-92
2020/12/12 00:41:02;;;;;;;12.93;2.15;;;8.80;99.90;;;;;;5056042;28;20080;-92
2020/12/12 00:43:48;;;;;;;10.98;2.00;;;8.70;99.90;;;;;;5054764;28;20044;-92
2020/12/12 00:46:29;;;;;;;19.23;2.63;;;8.70;99.90;;;;;;5055924;28;20116;-91
2020/12/12 00:49:10;;;;;;;15.52;2.13;;;8.60;99.90;;;;;;5070740;28;20060;-92
2020/12/12 00:51:52;;;;;;;17.15;2.22;;;8.60;99.90;;;;;;5077414;28;20117;-91
2020/12/12 00:54:35;;;;;;;16.73;2.28;;;8.60;99.90;;;;;;5068452;28;20051;-91
2020/12/12 00:57:17;;;;;;;13.70;2.85;;;8.70;99.90;;;;;;5058184;28;20108;-91
2020/12/12 00:59:54;;;;;;;18.30;2.97;;;8.70;99.90;;;;;;5071998;28;20060;-92
2020/12/12 01:02:35;;;;;;;14.75;2.30;;;8.70;99.90;;;;;;5059848;28;20061;-91
2020/12/12 01:05:19;;;;;;;11.90;2.60;;;8.70;99.90;;;;;;5058232;28;20110;-91
2020/12/12 01:08:05;;;;;;;13.63;2.08;;;8.70;99.90;;;;;;5055926;28;20442;-90
2020/12/12 01:10:53;;;;;;;13.32;2.30;;;8.70;99.90;;;;;;5070363;28;20061;-91
2020/12/12 01:13:31;;;;;;;15.63;2.55;;;8.70;99.90;;;;;;5054247;28;20040;-91
2020/12/12 01:16:20;;;;;;;22.02;3.28;;;8.70;99.90;;;;;;5054745;28;20053;-92
2020/12/12 01:19:02;;;;;;;18.30;3.30;;;8.70;99.90;;;;;;5054082;28;20120;-91
2020/12/12 01:21:44;;;;;;;22.02;3.05;;;8.80;99.90;;;;;;5068320;28;20052;-92
2020/12/12 01:24:27;;;;;;;18.35;3.13;;;8.80;99.90;;;;;;5068136;28;20050;-91
2020/12/12 01:27:08;;;;;;;23.60;3.05;;;8.80;99.90;;;;;;5068683;28;20045;-91
2020/12/12 01:29:53;;;;;;;23.15;3.40;;;8.80;99.90;;;;;;5063656;28;20076;-91
2020/12/12 01:32:33;;;;;;;24.00;3.80;;;8.80;99.90;;;;;;5062603;28;20075;-90
2020/12/12 01:35:13;;;;;;;20.02;3.40;;;8.90;99.90;;;;;;5060484;28;20048;-91
2020/12/12 01:37:52;;;;;;;22.50;3.08;;;8.90;99.90;;;;;;5059016;28;20075;-91
2020/12/12 01:40:31;;;;;;;20.20;3.20;;;8.90;99.90;;;;;;5059091;28;20052;-91
2020/12/12 01:43:15;;;;;;;14.23;2.90;;;8.90;99.90;;;;;;5056596;28;20059;-91
2020/12/12 01:46:00;;;;;;;12.38;2.50;;;8.90;99.90;;;;;;5058425;28;20108;-92
2020/12/12 01:48:45;;;;;;;17.45;2.92;;;8.90;99.90;;;;;;5072265;28;20055;-91
2020/12/12 01:51:26;;;;;;;16.08;2.08;;;8.90;99.90;;;;;;5055567;28;20045;-91
2020/12/12 01:54:03;;;;;;;15.38;2.33;;;8.90;99.90;;;;;;5060286;28;20068;-92
2020/12/12 01:56:43;;;;;;;12.77;2.50;;;8.90;99.90;;;;;;5063433;28;20056;-91
2020/12/12 01:59:26;;;;;;;18.38;2.65;;;8.90;99.90;;;;;;5063375;28;20050;-91
2020/12/12 02:02:06;;;;;;;14.93;2.40;;;8.90;99.90;;;;;;5064393;28;20069;-92
2020/12/12 02:04:50;;;;;;;14.27;2.67;;;8.90;99.90;;;;;;5072139;28;20129;-92
2020/12/12 02:07:32;;;;;;;12.73;2.65;;;8.90;99.90;;;;;;5058866;28;20037;-92
2020/12/12 02:10:20;;;;;;;8.85;1.80;;;8.80;99.90;;;;;;5072304;28;20080;-91
2020/12/12 02:13:00;;;;;;;17.40;2.15;;;8.80;99.90;;;;;;5072220;28;20056;-92
2020/12/12 02:15:48;;;;;;;13.20;1.80;;;8.70;99.90;;;;;;5069275;28;20367;-92
2020/12/12 02:18:24;;;;;;;11.77;2.20;;;8.70;99.90;;;;;;5057487;28;20056;-92
2020/12/12 02:21:05;;;;;;;9.55;1.67;;;8.70;99.90;;;;;;5058365;28;20045;-92
2020/12/12 02:23:45;;;;;;;10.27;1.90;;;8.60;99.90;;;;;;5063685;28;20045;-92
2020/12/12 02:26:20;;;;;;;;;;;8.60;99.90;;;;;;5064634;28;20171;-92
2020/12/12 02:29:09;;;;;;;16.25;2.45;;;8.50;99.90;;;;;;5062712;28;19920;-92
2020/12/12 02:32:00;;;;;;;14.18;3.17;;;8.50;99.90;;;;;;5058333;28;20045;-92
2020/12/12 02:34:42;;;;;;;21.25;2.78;;;8.50;99.90;;;;;;5073150;28;20041;-91
2020/12/12 02:37:32;;;;;;;17.83;2.92;;;8.50;99.90;;;;;;5074251;28;20056;-92
2020/12/12 02:40:20;;;;;;;22.23;2.63;;;8.50;99.90;;;;;;5071797;28;20060;-92
2020/12/12 02:43:02;;;;;;;17.23;3.50;;;8.50;99.90;;;;;;5056673;28;20051;-92
2020/12/12 02:45:46;;;;;;;16.60;2.58;;;8.50;99.90;;;;;;5060233;28;20075;-92
2020/12/12 02:48:31;;;;;;;15.57;3.20;;;8.50;99.90;;;;;;5073561;28;20045;-92
2020/12/12 02:51:22;;;;;;;20.75;3.00;;;8.60;99.90;;;;;;5056542;28;20055;-91
2020/12/12 02:54:08;;;;;;;28.23;3.42;;;8.60;99.90;;;;;;5058260;28;20044;-92
2020/12/12 02:56:52;;;;;;;19.08;3.13;;;8.60;99.90;;;;;;5057621;28;20048;-92
2020/12/12 02:59:35;;;;;;;22.55;3.47;;;8.60;99.90;;;;;;5062952;28;20045;-92
2020/12/12 03:02:17;;;;;;;15.48;2.90;;;8.60;99.90;;;;;;5063357;28;20049;-92
2020/12/12 03:05:06;;;;;;;12.63;2.65;;;8.70;99.90;;;;;;5056045;28;20056;-92
2020/12/12 03:07:50;;;;;;;11.85;2.20;;;8.70;99.90;;;;;;5070052;28;20061;-92
2020/12/12 03:10:33;;;;;;;14.63;2.03;;;8.70;99.90;;;;;;5072935;28;20517;-92
2020/12/12 03:13:16;;;;;;;13.02;1.80;;;8.60;99.90;;;;;;5073308;28;20067;-92
2020/12/12 03:16:00;;;;;;;11.27;1.75;;;8.60;99.90;;;;;;5055832;28;20079;-94
2020/12/12 03:18:41;;;;;;;9.23;1.60;;;8.50;99.90;;;;;;5072217;28;20127;-93
2020/12/12 03:21:25;;;;;;;13.85;1.95;;;8.40;99.90;;;;;;5059227;28;20049;-92
2020/12/12 03:24:12;;;;;;;14.45;1.63;;;8.40;99.90;;;;;;5067076;28;20048;-92
2020/12/12 03:26:58;;;;;;;13.40;2.17;;;8.40;99.90;;;;;;5068997;28;20071;-92
2020/12/12 03:29:45;;;;;;;11.27;1.60;;;8.30;99.90;;;;;;5062470;28;20056;-92
2020/12/12 03:32:33;;;;;;;10.93;2.45;;;8.30;99.90;;;;;;5058557;28;20049;-92
2020/12/12 03:35:13;;;;;;;13.80;1.98;;;8.20;99.90;;;;;;5058607;28;20048;-91
2020/12/12 03:38:01;;;;;;;16.80;2.85;;;8.20;99.90;;;;;;5067352;28;20057;-91
2020/12/12 03:40:51;;;;;;;13.90;2.17;;;8.30;99.90;;;;;;5055977;28;20074;-92
2020/12/12 03:43:34;;;;;;;15.07;2.67;;;8.30;99.90;;;;;;5056102;28;20402;-92
2020/12/12 03:46:16;;;;;;;20.55;3.63;;;8.30;99.90;;;;;;5088639;28;20053;-92
2020/12/12 03:49:01;;;;;;;12.80;2.25;;;8.30;99.90;;;;;;5069682;28;20098;-92
2020/12/12 03:51:43;;;;;;;12.13;2.30;;;8.30;99.90;;;;;;5063430;28;20045;-91
2020/12/12 03:54:24;;;;;;;19.25;2.85;;;8.40;99.90;;;;;;5056888;28;20052;-92
2020/12/12 03:57:14;;;;;;;17.45;3.22;;;8.40;99.90;;;;;;5066813;28;20105;-91
2020/12/12 03:59:55;;;;;;;14.00;2.35;;;8.40;99.90;;;;;;5056542;28;20052;-92
2020/12/12 04:02:33;;;;;;;13.20;1.92;;;8.50;99.90;;;;;;5064583;28;20105;-91
2020/12/12 04:05:16;;;;;;;19.88;3.58;;;8.50;99.90;;;;;;5048729;28;20053;-92
2020/12/12 04:07:56;;;;;;;18.55;2.83;;;8.50;99.90;;;;;;5055486;28;20120;-92
2020/12/12 04:10:58;;;;;;;16.77;2.78;;;8.60;99.90;;;;;;5057216;28;20443;-92
2020/12/12 04:13:39;;;;;;;15.10;2.55;;;8.60;99.90;;;;;;5056699;28;20040;-92
2020/12/12 04:16:24;;;;;;;18.67;2.40;;;8.60;99.90;;;;;;5072853;28;20525;-92
2020/12/12 04:19:06;;;;;;;20.00;2.58;;;8.50;99.90;;;;;;5055665;28;20063;-92
2020/12/12 04:21:52;;;;;;;17.02;3.03;;;8.50;99.90;;;;;;5054406;28;20048;-92
2020/12/12 04:24:34;;;;;;;15.10;2.47;;;8.50;99.90;;;;;;5067890;28;20053;-92
2020/12/12 04:27:11;;;;;;;18.05;3.00;;;8.50;99.90;;;;;;5065603;28;20098;-92
2020/12/12 04:29:56;;;;;;;18.42;2.58;;;8.40;99.90;;;;;;5060664;28;20049;-92
2020/12/12 04:32:41;;;;;;;13.65;2.13;;;8.50;99.90;;;;;;5061262;28;20127;-91
2020/12/12 04:35:25;;;;;;;15.88;1.98;;;8.40;99.90;;;;;;5073017;28;20095;-92
2020/12/12 04:38:08;;;;;;;17.17;3.42;;;8.40;99.90;;;;;;5071877;28;20075;-91
2020/12/12 04:40:55;;;;;;;12.73;2.50;;;8.40;99.90;;;;;;5054538;28;20071;-92
2020/12/12 04:43:37;;;;;;;19.77;3.20;;;8.40;99.90;;;;;;5063764;28;20087;-92
2020/12/12 04:46:25;;;;;;;13.25;2.47;;;8.40;99.90;;;;;;5057767;28;20045;-92
2020/12/12 04:49:12;;;;;;;14.50;3.10;;;8.40;99.90;;;;;;5068924;28;20044;-92
2020/12/12 04:52:02;;;;;;;16.90;2.50;;;8.40;99.90;;;;;;5068690;28;20464;-92
2020/12/12 04:54:45;;;;;;;10.88;1.92;;;8.30;99.90;;;;;;5056120;28;20471;-92
2020/12/12 04:57:31;;;;;;;15.30;2.53;;;8.30;99.90;;;;;;5067745;28;20051;-92
2020/12/12 05:00:19;;;;;;;8.35;1.80;;;8.30;99.90;;;;;;5060674;28;20106;-92
2020/12/12 05:03:00;;;;;;;12.52;1.92;;;8.20;99.90;;;;;;5064954;28;20041;-92
2020/12/12 05:05:43;;;;;;;12.73;1.80;;;8.20;99.90;;;;;;5062993;28;20398;-92
2020/12/12 05:08:28;;;;;;;13.23;2.17;;;8.20;99.90;;;;;;5062337;28;20072;-92
2020/12/12 05:11:10;;;;;;;23.40;2.90;;;8.20;99.90;;;;;;5069973;28;20052;-92
2020/12/12 05:13:57;;;;;;;18.60;2.53;;;8.20;99.90;;;;;;5071437;28;20048;-92
2020/12/12 05:16:44;;;;;;;12.68;2.05;;;8.20;99.90;;;;;;5059902;28;20546;-92
2020/12/12 05:19:26;;;;;;;10.23;1.75;;;8.20;99.90;;;;;;5058813;28;20044;-92
2020/12/12 05:22:10;;;;;;;16.92;2.05;;;8.10;99.90;;;;;;5091343;28;20049;-92
2020/12/12 05:24:51;;;;;;;16.42;2.20;;;8.10;99.90;;;;;;5073484;28;20062;-93
2020/12/12 05:27:37;;;;;;;16.52;2.40;;;8.10;99.90;;;;;;5072462;28;20076;-93
2020/12/12 05:30:21;;;;;;;12.43;2.33;;;8.10;99.90;;;;;;5069223;28;20052;-92
2020/12/12 05:33:06;;;;;;;20.38;2.92;;;8.10;99.90;;;;;;5069974;28;20048;-92
2020/12/12 05:35:47;;;;;;;;;;;8.10;99.90;;;;;;5074051;28;20488;-92
2020/12/12 05:38:32;;;;;;;11.55;2.08;;;8.10;99.90;;;;;;5069627;28;19931;-92
2020/12/12 05:41:11;;;;;;;17.02;2.50;;;8.10;99.90;;;;;;5060245;28;20115;-92
2020/12/12 05:43:54;;;;;;;19.15;2.55;;;8.10;99.90;;;;;;5069990;28;20548;-92
2020/12/12 05:46:39;;;;;;;14.57;2.42;;;8.10;99.90;;;;;;5074668;28;20072;-92
2020/12/12 05:49:17;;;;;;;19.05;2.78;;;8.00;99.90;;;;;;5073057;28;20136;-92
2020/12/12 05:52:02;;;;;;;17.00;2.45;;;8.00;99.90;;;;;;5061681;28;20044;-92
2020/12/12 05:54:42;;;;;;;19.40;2.80;;;8.10;99.90;;;;;;5062458;28;20080;-93
2020/12/12 05:57:25;;;;;;;18.50;2.92;;;8.10;99.90;;;;;;5058764;28;20048;-92
2020/12/12 06:00:06;;;;;;;13.45;3.20;;;8.10;99.90;;;;;;5059919;28;20071;-92
2020/12/12 06:02:52;;;;;;;17.80;2.78;;;8.10;99.90;;;;;;5067549;28;20049;-92
2020/12/12 06:05:32;;;;;;;16.83;2.50;;;8.10;99.90;;;;;;5064697;28;20049;-92
2020/12/12 06:08:33;;;;;;;14.80;2.78;;;8.00;99.90;;;;;;5052116;28;20470;-92
2020/12/12 06:11:15;;;;;;;19.00;2.88;;;8.10;99.90;;;;;;5068269;28;20124;-92
2020/12/12 06:14:05;;;;;;;20.52;3.20;;;8.10;99.90;;;;;;5059954;28;20045;-91
2020/12/12 06:16:44;;;;;;;18.65;2.80;;;8.10;99.90;;;;;;5058257;28;20110;-92
2020/12/12 06:19:34;;;;;;;22.15;3.05;;;8.10;99.90;;;;;;5051804;28;20097;-92
2020/12/12 06:22:16;;;;;;;24.08;2.88;;;8.10;99.90;;;;;;5059059;28;20494;-93
2020/12/12 06:25:03;;;;;;;16.23;2.47;;;8.20;99.90;;;;;;5070487;28;20375;-92
2020/12/12 06:27:49;;;;;;;26.38;3.20;;;8.20;99.90;;;;;;5075621;28;20058;-92
2020/12/12 06:30:42;;;;;;;19.60;3.47;;;8.30;99.90;;;;;;5059468;28;20069;-92
2020/12/12 06:33:24;;;;;;;14.38;2.47;;;8.40;99.90;;;;;;5069342;28;20076;-90
2020/12/12 06:36:19;;;;;;;11.55;2.30;;;8.40;99.90;;;;;;5066136;28;20372;-92
2020/12/12 06:39:21;;;;;;;19.13;3.10;;;8.40;99.90;;;;;;5069121;28;20098;-91
2020/12/12 06:42:00;;;;;;;14.02;1.98;;;8.40;99.90;;;;;;5060234;28;20459;-91
2020/12/12 06:44:33;;;;;;;20.80;2.58;;;8.30;99.90;;;;;;5058816;28;20060;-91
2020/12/12 06:47:12;;;;;;;11.00;1.92;;;8.30;99.90;;;;;;5062044;28;20069;-91
2020/12/12 06:50:08;;;;;;;13.98;1.63;;;8.20;99.90;;;;;;5083527;28;20074;-90
2020/12/12 06:52:49;;;;;;;8.57;1.45;;;8.20;99.90;;;;;;5064457;28;20048;-92
2020/12/12 06:55:27;;;;;;;15.50;1.83;;;8.20;99.90;;;;;;5065463;28;20059;-91
2020/12/12 06:58:25;;;;;;;8.55;2.20;;;8.20;99.90;;;;;;5062319;28;20095;-91
2020/12/12 07:01:23;;;;;;;11.18;2.25;;;8.10;99.90;;;;;;5063124;28;20048;-91
2020/12/12 07:04:14;;;;;;;11.50;2.40;;;8.20;99.90;;;;;;5072472;28;20078;-90
2020/12/12 07:07:16;;;;;;;11.50;1.67;;;8.10;99.90;;;;;;5069496;28;20075;-91
2020/12/12 07:10:02;;;;;;;13.73;1.98;;;8.10;99.90;;;;;;5066618;28;20052;-91
2020/12/12 07:12:45;;;;;;;12.88;1.55;;;8.10;99.90;;;;;;5061746;28;20045;-91
2020/12/12 07:15:22;;;;;;;15.15;2.60;;;8.10;99.90;;;;;;5068267;28;20456;-91
2020/12/12 07:18:10;;;;;;;12.68;1.80;;;8.00;99.90;;;;;;5070324;28;20082;-92
2020/12/12 07:20:52;;;;;;;12.35;2.05;;;8.00;99.90;;;;;;5065283;28;20048;-91
2020/12/12 07:23:30;;;;;;;11.15;1.90;;;8.00;99.90;;;;;;5060707;28;20052;-91
2020/12/12 07:26:09;;;;;;;10.57;1.65;;;8.00;99.90;;;;;;5054224;28;20053;-91
2020/12/12 07:28:45;;;;;;;11.40;1.92;;;7.90;99.90;;;;;;5066618;28;20041;-91
2020/12/12 07:31:25;;;;;;;13.23;2.30;;;7.90;99.90;;;;;;5068577;28;20052;-91
2020/12/12 07:34:07;;;;;;;10.13;1.65;;;7.80;99.90;;;;;;5070998;28;20052;-91
2020/12/12 07:36:52;;;;;;;8.77;1.50;;;7.80;99.90;;;;;;5061096;28;20075;-91
2020/12/12 07:39:38;;;;;;;15.25;2.40;;;7.80;99.90;;;;;;5065959;28;20048;-91
2020/12/12 07:42:21;;;;;;;14.32;2.35;;;7.80;99.90;;;;;;5063278;28;20129;-91
2020/12/12 07:48:16;;;;;;;14.27;1.83;;;7.80;99.90;;;;;;5024291;28;20057;-91
2020/12/12 07:50:58;;;;;;;15.25;2.50;;;7.80;99.90;;;;;;5028059;28;20051;-91
2020/12/12 07:53:36;;;;;;;16.75;2.15;;;7.80;99.90;;;;;;5025133;28;20050;-91
2020/12/12 07:56:11;;;;;;;16.33;2.78;;;7.90;99.90;;;;;;5014677;28;20048;-91
2020/12/12 07:59:06;;;;;;;13.75;3.55;;;7.90;99.90;;;;;;5014078;28;20049;-92
2020/12/12 08:01:43;;;;;;;16.83;2.45;;;7.90;99.90;;;;;;5011294;28;20065;-92
2020/12/12 08:04:24;;;;;;;14.65;3.00;;;8.00;99.90;;;;;;5007532;28;20056;-90
2020/12/12 08:07:11;;;;;;;24.48;3.20;;;8.10;99.90;;;;;;4997455;28;20081;-92
2020/12/12 08:09:53;;;;;;;11.70;2.55;;;8.10;99.90;;;;;;4991983;28;20128;-91
2020/12/12 08:12:31;;;;;;;18.30;2.45;;;8.20;99.90;;;;;;4987984;28;20062;-92
2020/12/12 08:15:16;;;;;;;14.70;2.58;;;8.20;99.90;;;;;;5002763;28;20047;-91
2020/12/12 08:17:58;;;;;;;13.77;1.85;;;8.10;99.90;;;;;;4995994;28;20049;-91
2020/12/12 08:20:39;;;;;;;12.90;2.20;;;8.10;99.90;;;;;;5065413;28;20107;-92
2020/12/12 08:23:20;;;;;;;16.20;2.25;;;8.10;99.90;;;;;;5067889;28;20148;-92
2020/12/12 08:26:10;;;;;;;22.20;3.20;;;8.10;99.90;;;;;;5066214;28;20048;-91
2020/12/12 08:28:50;;;;;;;16.63;2.08;;;8.00;99.90;;;;;;5068969;28;20065;-92
2020/12/12 08:31:28;;;;;;;18.90;2.53;;;8.10;99.90;;;;;;5082207;28;20482;-91
2020/12/12 08:34:04;;;;;;;13.90;2.10;;;8.00;99.90;;;;;;5084915;28;20076;-91
2020/12/12 08:36:44;;;;;;;20.98;2.33;;;8.10;99.90;;;;;;5061658;28;20132;-91
2020/12/12 08:39:30;;;;;;;13.60;3.10;;;8.10;99.90;;;;;;5059275;28;20403;-90
2020/12/12 08:42:08;;;;;;;12.77;2.15;;;8.10;99.90;;;;;;5037973;28;20091;-91
2020/12/12 08:44:45;;;;;;;13.10;2.28;;;8.10;99.90;;;;;;5024180;28;20060;-90
2020/12/12 08:47:21;;;;;;;14.73;2.10;;;8.10;99.90;;;;;;5030568;28;20041;-91
2020/12/12 08:49:57;;;;;;;13.50;1.90;;;8.10;99.90;;;;;;5027368;28;20049;-90
2020/12/12 08:52:32;;;;;;;17.30;2.65;;;8.10;99.90;;;;;;5032588;28;20045;-90
2020/12/12 08:55:13;;;;;;;22.30;3.40;;;8.10;99.90;;;;;;5027495;28;20063;-90
2020/12/12 08:58:04;;;;;;;15.95;3.08;;;8.20;99.90;;;;;;5030080;28;20080;-90
2020/12/12 09:00:43;;;;;;;16.63;2.33;;;8.20;99.90;;;;;;5027901;28;20047;-90
2020/12/12 09:03:18;;;;;;;16.42;2.63;;;8.20;99.90;;;;;;5029574;28;20088;-90
2020/12/12 09:05:55;;;;;;;16.60;2.47;;;8.30;99.90;;;;;;5032389;28;20052;-90
2020/12/12 09:08:29;;;;;;;12.68;1.95;;;8.30;99.90;;;;;;5026511;28;20060;-90
2020/12/12 09:11:18;;;;;;;17.90;2.42;;;8.40;99.90;;;;;;5029428;28;20057;-90
2020/12/12 09:13:49;;;;;;;13.80;2.60;;;8.40;99.90;;;;;;5031550;28;20048;-90
2020/12/12 09:16:25;;;;;;;8.70;1.75;;;8.50;99.90;;;;;;5029068;28;20046;-90
2020/12/12 09:19:00;;;;;;;17.70;2.20;;;8.50;99.90;;;;;;5020199;28;20049;-90
2020/12/12 09:21:37;;;;;;;12.65;2.17;;;8.60;99.90;;;;;;5029458;28;20057;-90
2020/12/12 09:24:13;;;;;;;16.63;2.38;;;8.70;99.90;;;;;;5030184;28;20045;-88
2020/12/12 09:26:44;;;;;;;14.70;2.53;;;8.70;99.90;;;;;;5031089;28;20061;-90
2020/12/12 09:29:14;;;;;;;14.10;2.10;;;8.70;99.90;;;;;;5031807;28;20067;-90
2020/12/12 09:31:50;;;;;;;16.08;2.83;;;8.60;99.90;;;;;;5030515;28;20045;-90
2020/12/12 09:34:28;;;;;;;11.05;1.83;;;8.50;99.90;;;;;;5033966;28;20134;-90
2020/12/12 09:37:08;;;;;;;13.00;1.83;;;8.40;99.90;;;;;;5022449;28;20053;-91
2020/12/12 09:39:47;;;;;;;14.05;2.10;;;8.40;99.90;;;;;;5035674;28;20045;-91
2020/12/12 09:42:22;;;;;;;12.00;2.15;;;8.30;99.90;;;;;;5047678;28;20056;-88
2020/12/12 09:44:58;;;;;;;13.82;1.77;;;8.30;99.90;;;;;;5048200;28;20540;-90
2020/12/12 09:47:37;;;;;;;13.13;2.30;;;8.30;99.90;;;;;;5048466;28;20048;-90
2020/12/12 09:50:09;;;;;;;12.88;1.98;;;8.40;99.90;;;;;;5052373;28;20066;-90
2020/12/12 09:52:46;;;;;;;11.95;1.90;;;8.40;99.90;;;;;;5044629;28;20099;-90
2020/12/12 09:55:21;;;;;;;16.45;2.10;;;8.40;99.90;;;;;;5051231;28;20049;-90
2020/12/12 09:57:59;;;;;;;10.52;2.08;;;8.40;99.90;;;;;;5051869;28;20044;-90
2020/12/12 10:00:32;;;;;;;12.13;2.38;;;8.40;99.90;;;;;;5063931;28;20528;-90
2020/12/12 10:03:09;;;;;;;13.70;2.05;;;8.40;99.90;;;;;;5053566;28;20474;-90
2020/12/12 10:05:43;;;;;;;10.00;2.22;;;8.40;99.90;;;;;;5051040;28;20125;-89
2020/12/12 10:08:18;;;;;;;10.70;2.80;;;8.50;99.90;;;;;;5054482;28;20123;-89
2020/12/12 10:10:52;;;;;;;11.27;2.30;;;8.50;99.90;;;;;;5051587;28;20462;-89
2020/12/12 10:13:28;;;;;;;11.65;1.75;;;8.50;99.90;;;;;;5048476;28;20058;-89
2020/12/12 10:16:01;;;;;;;10.57;1.40;;;8.60;99.90;;;;;;5047805;28;20087;-89
2020/12/12 10:18:32;;;;;;;13.80;2.00;;;8.70;99.90;;;;;;5047910;28;20071;-90
2020/12/12 10:21:08;;;;;;;10.57;1.73;;;8.80;99.90;;;;;;5049414;28;20079;-89
2020/12/12 10:23:42;;;;;;;12.25;1.80;;;8.90;99.90;;;;;;5042280;28;20048;-90
2020/12/12 10:26:19;;;;;;;11.13;1.92;;;9.00;99.90;;;;;;5048272;28;20076;-90
2020/12/12 10:28:56;;;;;;;13.63;2.08;;;9.00;99.90;;;;;;5070684;28;20040;-90
2020/12/12 10:31:33;;;;;;;14.77;2.15;;;9.10;99.90;;;;;;5047819;28;20080;-90
2020/12/12 10:34:11;;;;;;;18.50;2.40;;;9.20;99.90;;;;;;5064827;28;20048;-90
2020/12/12 10:36:45;;;;;;;15.73;2.00;;;9.30;99.90;;;;;;5041808;28;20064;-89
2020/12/12 10:39:31;;;;;;;13.32;1.73;;;9.40;99.90;;;;;;5053955;28;20220;-90
2020/12/12 10:42:09;;;;;;;18.15;2.28;;;9.40;99.90;;;;;;5061796;28;20040;-90
2020/12/12 10:44:48;;;;;;;12.02;2.30;;;9.50;99.90;;;;;;5065760;28;20059;-91
2020/12/12 10:47:29;;;;;;;13.25;2.60;;;9.50;99.90;;;;;;5061140;28;20494;-90
2020/12/12 10:50:15;;;;;;;12.10;2.13;;;9.60;99.90;;;;;;5065008;28;20063;-90
2020/12/12 10:52:55;;;;;;;16.55;2.47;;;9.70;99.90;;;;;;5068273;28;20080;-91
2020/12/12 10:55:41;;;;;;;12.50;1.98;;;9.70;99.90;;;;;;5047933;28;20135;-91
2020/12/12 10:58:20;;;;;;;19.73;2.95;;;9.80;99.90;;;;;;5066182;28;20044;-90
2020/12/12 11:00:58;;;;;;;17.73;2.00;;;9.90;99.90;;;;;;5060755;28;20168;-91
2020/12/12 11:03:32;;;;;;;;;;;10.00;99.90;;;;;;5054536;28;20111;-89
2020/12/12 11:06:04;;;;;;;16.42;2.00;;;10.10;99.90;;;;;;5064631;28;19929;-89
2020/12/12 11:08:43;;;;;;;19.83;2.45;;;10.10;99.90;;;;;;5059808;28;20394;-90
2020/12/12 11:11:26;;;;;;;11.35;2.00;;;10.10;99.90;;;;;;5066863;28;20490;-91
2020/12/12 11:14:01;;;;;;;13.75;2.22;;;10.10;99.90;;;;;;5063234;28;20053;-90
2020/12/12 11:16:36;;;;;;;14.10;2.25;;;10.10;99.90;;;;;;5069940;28;20044;-91
2020/12/12 11:19:13;;;;;;;19.60;2.50;;;10.10;99.90;;;;;;5062928;28;20100;-91
2020/12/12 11:21:47;;;;;;;;;;;10.10;99.90;;;;;;5058457;28;20048;-91
2020/12/12 11:24:22;;;;;;;19.65;2.05;;;10.10;99.90;;;;;;5060956;28;20020;-91
2020/12/12 11:27:05;;;;;;;12.85;2.55;;;10.10;99.90;;;;;;5057739;28;20056;-91
2020/12/12 11:29:41;;;;;;;13.85;2.35;;;10.00;99.90;;;;;;5067224;28;20075;-91
2020/12/12 11:32:17;;;;;;;18.40;2.33;;;10.10;99.90;;;;;;5068321;28;20052;-91
2020/12/12 11:35:06;;;;;;;15.05;2.80;;;10.10;99.90;;;;;;5062629;28;20048;-89
2020/12/12 11:40:41;;;;;;;11.32;2.42;;;10.20;99.90;;;;;;5065306;28;20105;-91
2020/12/12 11:48:57;;;;;;;18.10;3.03;;;10.30;99.90;;;;;;5068930;28;20051;-90
2020/12/12 11:51:34;;;;;;;15.77;3.05;;;10.40;99.90;;;;;;5044572;28;20060;-90
2020/12/12 11:54:09;;;;;;;14.98;2.50;;;10.40;99.90;;;;;;5049040;28;20059;-90
2020/12/12 11:56:45;;;;;;;10.68;2.42;;;10.40;99.90;;;;;;5050915;28;20280;-90
2020/12/12 11:59:18;;;;;;;10.77;1.70;;;10.40;99.90;;;;;;5046557;28;20053;-90
2020/12/12 12:01:49;;;;;;;11.52;2.35;;;10.40;99.90;;;;;;5047184;28;20071;-89
2020/12/12 12:04:22;;;;;;;12.85;2.17;;;10.40;99.90;;;;;;5060729;28;20053;-91
2020/12/12 12:06:57;;;;;;;13.25;2.78;;;10.40;99.90;;;;;;5044915;28;20089;-90
2020/12/12 12:09:45;;;;;;;14.02;2.30;;;10.40;99.90;;;;;;5044564;28;20104;-90
2020/12/12 12:12:17;;;;;;;14.05;2.25;;;10.40;99.90;;;;;;5043194;28;20045;-91
2020/12/12 12:14:48;;;;;;;17.17;3.00;;;10.40;99.90;;;;;;5047410;28;20067;-90
2020/12/12 12:17:19;;;;;;;17.23;2.08;;;10.40;99.90;;;;;;5047623;28;20066;-90
2020/12/12 12:19:54;;;;;;;15.73;2.25;;;10.50;99.90;;;;;;5048406;28;20059;-90
2020/12/12 12:22:30;;;;;;;13.98;2.20;;;10.40;99.90;;;;;;5048277;28;20047;-90
2020/12/12 12:25:05;;;;;;;13.15;2.17;;;10.40;99.90;;;;;;5047067;28;20056;-89
2020/12/12 12:27:38;;;;;;;10.02;1.92;;;10.40;99.90;;;;;;5070634;28;20064;-89
2020/12/12 12:30:08;;;;;;;8.63;1.75;;;10.40;99.90;;;;;;5046386;28;20514;-89
2020/12/12 12:32:38;;;;;;;14.25;2.40;;;10.40;99.90;;;;;;5048892;28;20527;-89
2020/12/12 12:35:09;;;;;;;9.75;1.90;;;10.40;99.90;;;;;;5045189;28;20048;-89
2020/12/12 12:37:39;;;;;;;14.35;1.83;;;10.50;99.90;;;;;;5047185;28;20120;-89
2020/12/12 12:40:08;;;;;;;14.57;2.47;;;10.50;99.90;;;;;;5052991;28;20057;-88
2020/12/12 12:42:37;;;;;;;14.25;2.25;;;10.60;99.90;;;;;;5055594;28;20122;-89
2020/12/12 12:45:08;;;;;;;10.45;1.88;;;10.60;99.90;;;;;;5064027;28;20044;-89
2020/12/12 12:47:40;;;;;;;10.15;1.75;;;10.60;99.90;;;;;;5066720;28;20466;-89
2020/12/12 12:50:13;;;;;;;7.57;1.48;;;10.60;99.90;;;;;;5063529;28;20451;-88
2020/12/12 12:52:44;;;;;;;9.18;1.58;;;10.60;99.90;;;;;;5058447;28;20044;-90
2020/12/12 12:55:17;;;;;;;7.53;1.73;;;10.60;99.90;;;;;;5040824;28;20077;-89
2020/12/12 12:57:52;;;;;;;8.52;1.70;;;10.60;99.90;;;;;;5070879;28;20049;-89
2020/12/12 13:00:31;;;;;;;7.78;2.13;;;10.60;99.90;;;;;;5058143;28;20048;-90
2020/12/12 13:03:02;;;;;;;13.52;2.70;;;10.60;99.90;;;;;;5059055;28;20420;-89
2020/12/12 13:05:37;;;;;;;12.23;2.33;;;10.50;99.90;;;;;;5056049;28;20060;-89
2020/12/12 13:08:08;;;;;;;18.85;2.83;;;10.40;99.90;;;;;;5059312;28;20049;-89
2020/12/12 13:10:40;;;;;;;19.90;3.13;;;10.40;99.90;;;;;;5068673;28;20082;-90
2020/12/12 13:13:18;;;;;;;12.38;1.98;;;10.30;99.90;;;;;;5065618;28;20106;-91
2020/12/12 13:16:02;;;;;;;7.65;1.48;;;10.30;99.90;;;;;;5064425;28;20044;-92
2020/12/12 13:19:31;;;;;;;16.73;2.55;;;10.20;99.90;;;;;;5063735;28;20052;-91
2020/12/12 13:24:40;;;;;;;7.10;2.13;;;10.20;99.90;;;;;;5070587;28;20364;-91
2020/12/12 13:27:29;;;;;;;10.55;1.88;;;10.20;99.90;;;;;;5059443;28;20091;-91
2020/12/12 13:30:19;;;;;;;10.40;1.70;;;10.20;99.90;;;;;;5066193;28;20052;-91
2020/12/12 13:33:02;;;;;;;9.60;1.65;;;10.10;99.90;;;;;;5069803;28;20076;-91
2020/12/12 13:35:47;;;;;;;10.68;1.55;;;10.00;99.90;;;;;;5065140;28;20049;-86
2020/12/12 13:38:15;;;;;;;12.82;1.52;;;10.00;99.90;;;;;;5064856;28;20053;-85
2020/12/12 13:40:50;;;;;;;9.27;1.55;;;9.90;99.90;;;;;;5064078;28;20055;-87
2020/12/12 13:43:20;;;;;;;9.18;1.35;;;9.90;99.90;;;;;;5062206;28;20067;-84
2020/12/12 13:45:49;;;;;;;9.30;1.60;;;9.80;99.90;;;;;;5065862;28;20055;-85
2020/12/12 13:48:18;;;;;;;10.73;1.70;;;9.90;99.90;;;;;;5058323;28;20136;-85
2020/12/12 13:50:48;;;;;;;8.18;1.50;;;9.90;99.90;;;;;;5061891;28;20064;-87
2020/12/12 13:53:23;;;;;;;9.63;1.33;;;9.80;99.90;;;;;;5063279;28;20052;-86
2020/12/12 13:55:55;;;;;;;10.05;1.50;;;9.90;99.90;;;;;;5064636;28;20045;-87
2020/12/12 13:58:32;;;;;;;8.50;1.70;;;9.90;99.90;;;;;;5065321;28;20040;-91
2020/12/12 14:01:21;;;;;;;10.70;1.88;;;9.90;99.90;;;;;;5065651;28;20132;-91
2020/12/12 14:04:15;;;;;;;15.48;2.05;;;10.00;99.90;;;;;;5068229;28;20601;-91
2020/12/12 14:07:07;;;;;;;10.02;2.03;;;9.90;99.90;;;;;;5074553;28;20052;-91
2020/12/12 14:19:25;;;;;;;10.85;1.98;;;9.70;99.90;;;;;;5069453;28;20115;-86
2020/12/12 14:24:19;;;;;;;8.02;1.60;;;9.50;99.90;;;;;;5062729;28;20407;-91